Time;durP1;ratioP1;P1;durP2;ratioP2;P2;SDS_P1;SDS_P2;PMS_P1;PMS_P2;Temp;Humidity;BMP_temperature;BMP_pressure;BME280_temperature;BME280_humidity;BME280_pressure;Samples;Min_cycle;Max_cycle;Signal;HPM_P1;HPM_P2
2024/04/21 00:00:07;;;;;;;3.67;1.40;;;;;;;5.55;62.65;92755.31;2027644;70;20175;-69
2024/04/21 00:02:34;;;;;;;1.20;1.08;;;;;;;5.49;62.12;92763.19;2024489;70;20155;-68
2024/04/21 00:04:59;;;;;;;1.52;1.00;;;;;;;5.51;62.35;92757.75;2027774;70;20162;-69
2024/04/21 00:07:25;;;;;;;2.08;1.30;;;;;;;5.45;61.98;92762.84;2028068;70;20218;-73
2024/04/21 00:09:50;;;;;;;1.83;1.20;;;;;;;5.41;61.77;92759.75;2028365;70;20156;-69
2024/04/21 00:12:16;;;;;;;3.55;1.30;;;;;;;5.33;63.20;92749.41;2028000;70;20179;-70
2024/04/21 00:14:42;;;;;;;2.17;1.60;;;;;;;5.03;64.25;92746.94;2027930;70;20526;-70
2024/04/21 00:17:07;;;;;;;2.15;1.55;;;;;;;5.16;63.50;92749.41;2028046;70;20184;-70
2024/04/21 00:19:33;;;;;;;2.53;1.38;;;;;;;4.98;64.22;92754.22;2028113;70;20137;-69
2024/04/21 00:21:58;;;;;;;1.67;1.48;;;;;;;5.12;63.84;92746.28;2024609;70;20149;-71
2024/04/21 00:24:28;;;;;;;1.60;1.38;;;;;;;5.17;63.82;92750.13;2028265;70;20168;-70
2024/04/21 00:26:54;;;;;;;2.55;1.45;;;;;;;5.19;63.93;92745.47;2027828;70;20145;-70
2024/04/21 00:29:20;;;;;;;1.60;1.40;;;;;;;4.91;64.97;92741.13;2028000;70;20267;-70
2024/04/21 00:31:45;;;;;;;2.65;1.85;;;;;;;4.28;66.85;92716.41;2027742;70;20272;-69
2024/04/21 00:34:11;;;;;;;3.55;1.70;;;;;;;4.57;66.17;92748.09;2028178;70;20148;-70
2024/04/21 00:36:41;;;;;;;1.73;1.60;;;;;;;4.56;66.92;92743.09;2027847;70;20203;-72
2024/04/21 00:39:07;;;;;;;1.90;1.60;;;;;;;4.67;65.44;92737.03;2028138;70;20164;-75
2024/04/21 00:41:33;;;;;;;2.30;1.60;;;;;;;4.81;66.03;92727.09;2027855;70;20244;-74
2024/04/21 00:43:59;;;;;;;3.03;1.58;;;;;;;4.94;66.12;92736.44;2024605;70;20149;-72
2024/04/21 00:46:25;;;;;;;13.63;5.60;;;;;;;4.85;66.20;92735.75;2027993;70;20164;-69
2024/04/21 00:48:52;;;;;;;4.75;2.60;;;;;;;4.45;67.04;92735.22;2027231;70;20567;-70
2024/04/21 00:51:21;;;;;;;6.50;2.10;;;;;;;4.29;67.68;92732.53;2028211;70;20295;-69
2024/04/21 00:53:52;;;;;;;3.65;2.03;;;;;;;3.83;70.67;92727.28;2027926;70;20245;-69
2024/04/21 00:56:22;;;;;;;2.58;1.92;;;;;;;4.00;70.13;92712.72;2028007;70;20179;-69
2024/04/21 00:58:52;;;;;;;2.92;2.05;;;;;;;4.34;68.99;92717.63;2027819;70;20161;-69
2024/04/21 01:01:18;;;;;;;3.42;2.20;;;;;;;3.96;71.29;92717.94;2027989;70;20168;-69
2024/04/21 01:03:44;;;;;;;3.85;2.10;;;;;;;4.26;69.27;92719.00;2023824;71;20165;-70
2024/04/21 01:06:10;;;;;;;2.53;2.13;;;;;;;4.20;70.04;92710.16;2024858;71;20153;-71
2024/04/21 01:08:35;;;;;;;4.18;2.10;;;;;;;4.13;70.44;92708.16;2025116;71;20149;-68
2024/04/21 01:11:01;;;;;;;4.20;2.70;;;;;;;4.30;70.50;92699.84;2025197;71;20237;-70
2024/04/21 01:13:28;;;;;;;2.83;2.25;;;;;;;4.44;69.88;92697.50;2025076;71;20157;-69
2024/04/21 01:15:54;;;;;;;2.47;2.10;;;;;;;4.45;70.17;92691.34;2025157;71;20134;-71
2024/04/21 01:18:20;;;;;;;5.57;2.70;;;;;;;4.48;70.24;92695.78;2025027;71;20140;-69
2024/04/21 01:20:47;;;;;;;5.68;2.75;;;;;;;4.55;69.27;92691.44;2025133;71;20260;-71
2024/04/21 01:23:13;;;;;;;10.55;3.00;;;;;;;4.61;69.63;92691.94;2024919;71;20245;-72
2024/04/21 01:25:39;;;;;;;7.90;3.40;;;;;;;4.58;70.12;92696.63;2025083;71;20176;-70
2024/04/21 01:28:05;;;;;;;5.15;2.50;;;;;;;4.37;70.42;92692.72;2025219;71;20145;-70
2024/04/21 01:30:31;;;;;;;3.83;2.38;;;;;;;3.97;72.85;92693.59;2028104;70;20176;-69
2024/04/21 01:32:58;;;;;;;7.13;2.78;;;;;;;3.87;74.00;92692.75;2027717;70;20152;-71
2024/04/21 01:35:24;;;;;;;3.45;2.40;;;;;;;4.28;71.98;92694.09;2028480;70;20237;-71
2024/04/21 01:37:50;;;;;;;5.63;2.47;;;;;;;4.39;71.52;92696.41;2028522;70;20176;-71
2024/04/21 01:40:17;;;;;;;4.30;3.00;;;;;;;3.51;74.43;92675.16;2028244;70;20252;-72
2024/04/21 01:42:43;;;;;;;2.88;2.28;;;;;;;3.66;75.04;92687.50;2027684;70;20144;-71
2024/04/21 01:45:08;;;;;;;2.75;2.33;;;;;;;4.20;73.16;92685.06;2028242;70;20164;-73
2024/04/21 01:47:34;;;;;;;3.95;2.72;;;;;;;4.25;72.22;92682.03;2027753;70;20567;-75
2024/04/21 01:49:59;;;;;;;2.70;2.33;;;;;;;4.41;71.55;92681.94;2028373;70;20156;-73
2024/04/21 01:52:25;;;;;;;3.83;2.70;;;;;;;4.45;71.36;92677.41;2028178;70;20141;-74
2024/04/21 01:54:51;;;;;;;5.43;2.65;;;;;;;4.50;70.51;92684.06;2027991;70;20153;-70
2024/04/21 01:57:16;;;;;;;3.08;2.38;;;;;;;4.47;70.73;92680.38;2028150;70;20149;-72
2024/04/21 01:59:43;;;;;;;2.30;2.10;;;;;;;4.44;70.11;92661.97;2028112;70;20145;-70
2024/04/21 02:02:09;;;;;;;3.72;2.20;;;;;;;4.47;70.60;92663.63;2028218;70;20567;-71
2024/04/21 02:04:35;;;;;;;4.90;2.60;;;;;;;4.45;70.83;92659.97;2028173;70;20243;-69
2024/04/21 02:07:00;;;;;;;2.35;2.10;;;;;;;4.51;70.82;92663.97;2028327;70;20264;-70
2024/04/21 02:09:26;;;;;;;5.45;2.60;;;;;;;4.46;70.29;92650.28;2027965;70;20149;-70
2024/04/21 02:11:52;;;;;;;3.38;2.20;;;;;;;4.42;70.40;92645.09;2028187;70;20164;-70
2024/04/21 02:14:18;;;;;;;4.20;2.40;;;;;;;4.44;71.02;92653.63;2027869;70;20195;-74
2024/04/21 02:16:43;;;;;;;3.55;2.20;;;;;;;4.42;71.48;92642.31;2028158;70;20145;-74
2024/04/21 02:19:09;;;;;;;4.82;2.50;;;;;;;4.47;71.12;92643.38;2028151;70;20149;-73
2024/04/21 02:21:35;;;;;;;4.93;2.47;;;;;;;4.37;70.84;92637.00;2028432;70;20124;-71
2024/04/21 02:24:01;;;;;;;4.93;2.47;;;;;;;4.45;71.24;92643.25;2028368;70;20208;-71
2024/04/21 02:26:27;;;;;;;4.50;2.63;;;;;;;4.41;71.89;92640.13;2027491;70;20244;-72
2024/04/21 02:28:53;;;;;;;3.60;2.25;;;;;;;4.45;71.67;92646.03;2028411;70;20640;-72
2024/04/21 02:31:18;;;;;;;5.07;2.42;;;;;;;4.37;71.29;92634.19;2028145;70;20267;-74
2024/04/21 02:33:44;;;;;;;6.03;2.55;;;;;;;4.55;70.38;92646.84;2028206;70;20153;-70
2024/04/21 02:36:10;;;;;;;3.17;2.38;;;;;;;4.46;70.94;92631.50;2028212;70;20216;-70
2024/04/21 02:38:36;;;;;;;6.55;2.55;;;;;;;4.38;70.77;92625.25;2028198;70;20168;-69
2024/04/21 02:41:01;;;;;;;3.92;2.70;;;;;;;4.27;70.35;92620.91;2024919;70;20160;-68
2024/04/21 02:43:27;;;;;;;3.90;2.20;;;;;;;4.36;70.34;92641.84;2027964;70;20259;-72
2024/04/21 02:45:52;;;;;;;5.30;2.47;;;;;;;4.30;71.17;92624.59;2028044;70;20161;-69
2024/04/21 02:48:18;;;;;;;3.67;2.67;;;;;;;4.44;71.00;92627.81;2028267;70;20172;-75
2024/04/21 02:50:45;;;;;;;2.92;2.10;;;;;;;4.43;71.50;92624.28;2028043;70;20152;-73
2024/04/21 02:53:10;;;;;;;4.03;2.22;;;;;;;4.43;71.13;92617.97;2028100;70;20279;-71
2024/04/21 02:55:42;;;;;;;3.85;2.20;;;;;;;4.50;69.96;92617.91;2028152;70;20157;-70
2024/04/21 02:58:08;;;;;;;4.32;2.30;;;;;;;4.46;70.93;92603.63;2028043;70;20653;-69
2024/04/21 03:00:37;;;;;;;4.57;2.45;;;;;;;4.49;70.90;92596.16;2027882;70;20187;-70
2024/04/21 03:03:03;;;;;;;5.97;2.60;;;;;;;4.53;70.11;92604.84;2028471;70;20160;-70
2024/04/21 03:05:28;;;;;;;5.00;2.28;;;;;;;4.45;70.28;92596.59;2028280;70;20490;-70
2024/04/21 03:07:54;;;;;;;4.00;2.40;;;;;;;4.27;71.53;92586.75;2028071;70;20244;-70
2024/04/21 03:10:20;;;;;;;3.72;2.58;;;;;;;4.27;71.06;92597.88;2028163;70;20136;-69
2024/04/21 03:12:46;;;;;;;3.47;2.45;;;;;;;4.19;71.40;92600.75;2028012;70;20245;-68
2024/04/21 03:15:12;;;;;;;3.97;2.42;;;;;;;4.12;72.32;92592.44;2028113;70;20159;-69
2024/04/21 03:17:37;;;;;;;2.60;2.25;;;;;;;4.29;72.32;92598.03;2028210;70;20153;-71
2024/04/21 03:20:03;;;;;;;4.35;1.95;;;;;;;4.39;71.61;92598.84;2028210;70;20259;-72
2024/04/21 03:22:29;;;;;;;5.18;2.10;;;;;;;4.27;71.26;92597.88;2028188;70;20201;-71
2024/04/21 03:24:55;;;;;;;2.67;2.20;;;;;;;3.76;73.66;92590.91;2028235;70;20220;-74
2024/04/21 03:27:20;;;;;;;6.00;2.33;;;;;;;3.74;74.38;92593.53;2028362;70;20590;-70
2024/04/21 03:29:49;;;;;;;2.85;2.00;;;;;;;3.90;73.54;92585.78;2027852;70;20192;-72
2024/04/21 03:32:15;;;;;;;2.67;2.13;;;;;;;3.74;73.60;92583.13;2027989;70;20281;-72
2024/04/21 03:34:42;;;;;;;4.95;2.08;;;;;;;3.96;73.43;92583.50;2028243;70;20658;-73
2024/04/21 03:37:07;;;;;;;4.28;2.22;;;;;;;4.16;72.31;92585.16;2028490;70;20292;-74
2024/04/21 03:39:33;;;;;;;2.55;2.15;;;;;;;4.28;71.36;92572.22;2028508;70;20256;-74
2024/04/21 03:41:58;;;;;;;4.35;2.20;;;;;;;4.21;71.76;92575.06;2028325;70;20274;-70
2024/04/21 03:44:25;;;;;;;5.10;2.58;;;;;;;4.30;71.37;92564.00;2027768;70;20151;-70
2024/04/21 03:46:51;;;;;;;4.93;2.72;;;;;;;4.34;70.30;92569.19;2028155;70;20248;-70
2024/04/21 03:49:16;;;;;;;4.20;2.30;;;;;;;4.35;71.49;92562.28;2028150;70;20610;-71
2024/04/21 03:51:42;;;;;;;2.95;2.10;;;;;;;4.42;70.72;92560.75;2027839;70;20165;-74
2024/04/21 03:54:07;;;;;;;3.28;2.25;;;;;;;4.45;71.10;92567.97;2028310;70;20170;-73
2024/04/21 03:56:33;;;;;;;2.30;2.03;;;;;;;4.50;70.87;92569.78;2028167;70;20240;-75
2024/04/21 03:58:59;;;;;;;4.78;2.60;;;;;;;4.31;72.25;92562.00;2028173;70;20587;-70
2024/04/21 04:01:24;;;;;;;4.28;2.35;;;;;;;4.39;71.71;92559.09;2028202;70;20296;-73
2024/04/21 04:03:51;;;;;;;3.88;2.10;;;;;;;4.38;71.89;92566.00;2028213;70;20228;-71
2024/04/21 04:06:18;;;;;;;6.60;2.40;;;;;;;4.19;71.53;92569.34;2028366;70;20203;-74
2024/04/21 04:08:43;;;;;;;3.70;2.20;;;;;;;4.21;71.66;92558.38;2028267;70;20160;-72
2024/04/21 04:11:10;;;;;;;2.92;2.40;;;;;;;4.08;72.62;92565.75;2028157;70;20258;-74
2024/04/21 04:13:35;;;;;;;4.20;2.50;;;;;;;3.91;74.01;92564.97;2028144;70;20240;-69
2024/04/21 04:16:01;;;;;;;2.80;2.50;;;;;;;4.00;73.39;92558.78;2028029;70;20180;-70
2024/04/21 04:18:27;;;;;;;3.42;2.63;;;;;;;4.03;72.98;92561.16;2027991;70;20153;-70
2024/04/21 04:20:52;;;;;;;3.45;2.10;;;;;;;3.73;74.65;92553.81;2027989;70;20669;-70
2024/04/21 04:23:18;;;;;;;3.75;2.15;;;;;;;3.62;74.86;92551.50;2027883;70;20168;-72
2024/04/21 04:25:43;;;;;;;2.65;1.80;;;;;;;3.82;74.07;92546.88;2028132;70;20175;-71
2024/04/21 04:28:09;;;;;;;3.50;1.95;;;;;;;3.88;74.11;92549.41;2028090;70;20160;-71
2024/04/21 04:30:36;;;;;;;3.42;1.95;;;;;;;4.16;73.01;92546.16;2027965;70;20230;-70
2024/04/21 04:33:01;;;;;;;3.17;2.20;;;;;;;4.10;73.38;92544.94;2027843;70;20173;-69
2024/04/21 04:35:27;;;;;;;3.05;2.35;;;;;;;4.18;72.84;92543.53;2027775;70;20192;-69
2024/04/21 04:37:52;;;;;;;4.03;2.25;;;;;;;4.04;73.69;92528.47;2028042;70;20192;-71
2024/04/21 04:40:18;;;;;;;5.03;2.53;;;;;;;4.12;74.00;92545.81;2028060;70;20203;-68
2024/04/21 04:42:44;;;;;;;2.92;2.40;;;;;;;4.15;73.88;92535.59;2028367;70;20153;-67
2024/04/21 04:45:10;;;;;;;5.13;2.35;;;;;;;4.02;73.79;92531.06;2028300;70;20167;-68
2024/04/21 04:47:36;;;;;;;6.13;2.25;;;;;;;4.07;74.36;92530.09;2027881;70;20141;-68
2024/04/21 04:50:01;;;;;;;3.13;2.60;;;;;;;4.10;74.24;92531.72;2028462;70;20598;-68
2024/04/21 04:52:27;;;;;;;4.28;2.40;;;;;;;4.11;73.89;92538.78;2028526;70;20152;-70
2024/04/21 04:54:52;;;;;;;3.28;2.60;;;;;;;4.01;73.84;92532.38;2028602;70;20147;-71
2024/04/21 04:57:18;;;;;;;4.07;2.53;;;;;;;4.08;73.53;92534.38;2028472;70;20165;-74
2024/04/21 04:59:44;;;;;;;4.80;2.33;;;;;;;4.24;72.83;92535.66;2027954;70;20156;-72
2024/04/21 05:02:09;;;;;;;4.07;2.47;;;;;;;4.30;73.25;92538.94;2028511;70;20224;-70
2024/04/21 05:04:35;;;;;;;3.97;2.60;;;;;;;4.40;72.97;92546.63;2028293;70;20145;-69
2024/04/21 05:07:00;;;;;;;7.55;4.43;;;;;;;4.27;73.37;92537.31;2028621;70;20156;-69
2024/04/21 05:09:26;;;;;;;13.15;7.00;;;;;;;4.33;73.54;92542.63;2028488;70;20502;-69
2024/04/21 05:11:52;;;;;;;13.18;7.75;;;;;;;4.47;71.95;92546.56;2028617;70;20164;-69
2024/04/21 05:14:17;;;;;;;12.95;7.85;;;;;;;4.49;73.34;92541.16;2028656;70;20148;-69
2024/04/21 05:16:45;;;;;;;10.13;6.38;;;;;;;4.51;72.89;92537.78;2028571;70;20213;-69
2024/04/21 05:19:14;;;;;;;9.55;6.00;;;;;;;4.40;72.70;92541.06;2028059;70;20237;-69
2024/04/21 05:21:39;;;;;;;6.72;4.85;;;;;;;4.46;72.50;92539.50;2028357;70;20228;-70
2024/04/21 05:24:05;;;;;;;6.45;3.30;;;;;;;4.29;72.81;92531.16;2028648;70;20153;-69
2024/04/21 05:26:31;;;;;;;4.07;2.63;;;;;;;4.27;73.15;92522.66;2028576;70;20198;-70
2024/04/21 05:28:56;;;;;;;6.40;3.03;;;;;;;4.07;73.76;92535.66;2028620;70;20577;-73
2024/04/21 05:31:22;;;;;;;5.65;3.55;;;;;;;3.60;75.44;92519.97;2028561;70;20109;-72
2024/04/21 05:33:47;;;;;;;7.65;2.88;;;;;;;4.06;74.58;92528.63;2028667;70;20145;-70
2024/04/21 05:36:14;;;;;;;3.90;2.80;;;;;;;3.93;73.93;92524.09;2028363;70;20137;-69
2024/04/21 05:38:39;;;;;;;3.63;2.47;;;;;;;3.65;75.57;92521.78;2028049;70;20574;-70
2024/04/21 05:41:05;;;;;;;14.27;7.57;;;;;;;3.65;75.20;92521.78;2028643;70;20559;-74
2024/04/21 05:43:30;;;;;;;19.08;9.25;;;;;;;4.07;74.25;92518.94;2028701;70;20236;-68
2024/04/21 05:46:03;;;;;;;8.60;5.25;;;;;;;4.04;73.40;92522.88;2028585;70;20543;-68
2024/04/21 05:48:28;;;;;;;8.63;3.90;;;;;;;4.41;72.38;92526.56;2028624;70;20173;-68
2024/04/21 05:50:54;;;;;;;6.90;3.10;;;;;;;4.38;72.52;92519.34;2028026;70;20160;-71
2024/04/21 05:53:20;;;;;;;13.38;6.45;;;;;;;4.27;73.19;92520.59;2028119;70;20586;-71
2024/04/21 05:55:46;;;;;;;11.52;5.40;;;;;;;4.45;73.58;92521.31;2028444;70;20180;-69
2024/04/21 05:58:12;;;;;;;3.10;2.20;;;;;;;4.77;71.53;92522.41;2028465;70;20148;-71
2024/04/21 06:00:37;;;;;;;3.20;2.20;;;;;;;4.53;70.80;92513.59;2028507;70;20530;-71
2024/04/21 06:03:04;;;;;;;7.07;4.22;;;;;;;4.81;70.61;92512.31;2028769;70;20244;-75
2024/04/21 06:05:30;;;;;;;5.22;3.60;;;;;;;4.82;69.92;92508.22;2028654;70;20153;-73
2024/04/21 06:07:55;;;;;;;7.60;3.92;;;;;;;5.19;69.53;92513.81;2028501;70;20164;-71
2024/04/21 06:10:21;;;;;;;4.35;2.90;;;;;;;5.44;66.30;92507.31;2028415;70;20248;-70
2024/04/21 06:12:48;;;;;;;3.88;2.80;;;;;;;5.37;68.12;92502.59;2028726;70;20164;-69
2024/04/21 06:15:16;;;;;;;3.92;2.70;;;;;;;5.26;69.29;92506.66;2028300;70;20144;-70
2024/04/21 06:17:42;;;;;;;5.20;2.67;;;;;;;5.22;68.02;92493.13;2028495;70;20597;-69
2024/04/21 06:20:08;;;;;;;5.80;2.85;;;;;;;4.31;72.44;92509.78;2028608;70;20233;-68
2024/04/21 06:22:33;;;;;;;3.13;2.55;;;;;;;4.08;74.29;92503.72;2028701;70;20161;-69
2024/04/21 06:24:59;;;;;;;2.90;2.55;;;;;;;5.05;71.89;92505.09;2024899;70;20464;-74
2024/04/21 06:27:25;;;;;;;3.47;2.40;;;;;;;5.42;70.08;92491.16;2028436;70;20137;-73
2024/04/21 06:29:51;;;;;;;3.92;2.60;;;;;;;5.60;68.70;92500.16;2028339;70;20148;-69
2024/04/21 06:32:17;;;;;;;2.72;2.25;;;;;;;5.06;69.60;92497.47;2028558;70;20244;-68
2024/04/21 06:34:43;;;;;;;3.67;2.85;;;;;;;5.01;69.35;92490.84;2028464;70;20148;-68
2024/04/21 06:37:08;;;;;;;3.95;2.63;;;;;;;5.44;68.81;92493.34;2028383;70;20188;-70
2024/04/21 06:39:34;;;;;;;4.20;2.58;;;;;;;5.44;68.46;92488.50;2028470;70;20145;-69
2024/04/21 06:42:02;;;;;;;3.10;2.13;;;;;;;6.09;64.99;92475.84;2024758;70;20330;-71
2024/04/21 06:44:28;;;;;;;3.25;2.25;;;;;;;6.34;66.68;92484.69;2028453;70;20191;-69
2024/04/21 06:46:54;;;;;;;3.45;2.22;;;;;;;6.18;64.44;92485.56;2024797;70;20172;-69
2024/04/21 06:49:19;;;;;;;5.03;1.80;;;;;;;5.67;65.07;92479.00;2028492;70;20229;-68
2024/04/21 06:51:45;;;;;;;2.72;1.70;;;;;;;6.27;64.52;92474.38;2025141;70;20119;-68
2024/04/21 06:54:10;;;;;;;3.13;1.85;;;;;;;6.51;64.72;92477.50;2028286;70;20173;-70
2024/04/21 06:56:36;;;;;;;2.65;1.50;;;;;;;6.71;64.23;92481.72;2028074;70;20157;-73
2024/04/21 06:59:01;;;;;;;3.28;1.90;;;;;;;6.75;62.98;92481.28;2024935;70;20690;-73
2024/04/21 07:01:27;;;;;;;2.67;1.73;;;;;;;6.59;63.18;92476.00;2028239;70;20144;-68
2024/04/21 07:03:52;;;;;;;2.50;1.80;;;;;;;7.01;63.33;92474.00;2028197;70;20156;-68
2024/04/21 07:06:19;;;;;;;3.60;1.80;;;;;;;7.17;62.58;92477.94;2028558;70;20175;-68
2024/04/21 07:08:44;;;;;;;1.92;1.77;;;;;;;6.91;62.57;92464.88;2024729;70;20140;-72
2024/04/21 07:11:10;;;;;;;7.03;3.55;;;;;;;7.05;63.25;92461.00;2028273;70;20536;-68
2024/04/21 07:13:36;;;;;;;4.13;2.67;;;;;;;7.42;62.54;92460.72;2028481;70;20152;-67
2024/04/21 07:16:01;;;;;;;6.03;3.55;;;;;;;7.71;61.92;92457.78;2028433;70;20232;-68
2024/04/21 07:18:28;;;;;;;4.97;2.97;;;;;;;7.43;61.03;92467.81;2028552;70;20225;-68
2024/04/21 07:20:53;;;;;;;3.25;2.42;;;;;;;7.84;60.41;92456.56;2028390;70;20265;-69
2024/04/21 07:23:19;;;;;;;2.45;1.80;;;;;;;7.29;60.59;92455.66;2028511;70;20182;-68
2024/04/21 07:25:44;;;;;;;2.30;1.80;;;;;;;7.35;61.49;92464.47;2028370;70;20153;-71
2024/04/21 07:28:10;;;;;;;2.40;1.67;;;;;;;8.11;60.72;92451.34;2024478;70;20160;-72
2024/04/21 07:30:36;;;;;;;2.65;1.70;;;;;;;8.48;59.59;92456.56;2024529;70;20176;-68
2024/04/21 07:33:02;;;;;;;2.55;1.58;;;;;;;8.25;58.53;92448.00;2027929;70;20598;-70
2024/04/21 07:35:27;;;;;;;2.63;1.20;;;;;;;8.51;56.93;92426.53;2028108;70;20175;-69
2024/04/21 07:37:53;;;;;;;3.72;1.75;;;;;;;8.91;56.68;92436.78;2028159;70;20228;-69
2024/04/21 07:40:18;;;;;;;1.67;1.48;;;;;;;9.18;55.43;92433.53;2028288;70;20161;-70
2024/04/21 07:42:44;;;;;;;1.55;1.20;;;;;;;8.85;55.96;92439.94;2028049;70;20460;-69
2024/04/21 07:45:10;;;;;;;1.85;1.40;;;;;;;8.87;55.06;92419.69;2028212;70;20168;-71
2024/04/21 07:47:35;;;;;;;1.67;1.38;;;;;;;8.59;55.49;92413.03;2028278;70;20176;-73
2024/04/21 07:50:04;;;;;;;1.73;1.35;;;;;;;8.47;55.26;92412.97;2024791;70;20225;-72
2024/04/21 07:52:30;;;;;;;2.40;1.50;;;;;;;9.35;55.41;92410.72;2028405;70;20164;-70
2024/04/21 07:54:55;;;;;;;1.92;1.30;;;;;;;9.15;54.46;92398.25;2028465;70;20165;-69
2024/04/21 07:57:21;;;;;;;2.10;1.23;;;;;;;9.59;54.65;92405.81;2028342;70;20540;-73
2024/04/21 07:59:47;;;;;;;1.10;0.88;;;;;;;10.22;52.92;92402.38;2027956;70;20472;-73
2024/04/21 08:02:12;;;;;;;2.33;0.90;;;;;;;10.27;50.47;92406.94;2028201;70;20246;-69
2024/04/21 08:04:38;;;;;;;1.80;1.40;;;;;;;10.29;52.70;92407.03;2028149;70;20160;-69
2024/04/21 08:07:03;;;;;;;1.30;1.20;;;;;;;10.75;53.26;92411.00;2027379;70;20161;-70
2024/04/21 08:09:29;;;;;;;1.48;1.30;;;;;;;10.91;53.38;92411.91;2028263;70;20159;-70
2024/04/21 08:11:55;;;;;;;1.25;1.10;;;;;;;9.68;51.58;92396.53;2028130;70;20213;-69
2024/04/21 08:14:20;;;;;;;1.45;1.20;;;;;;;9.57;52.21;92394.44;2024295;70;20160;-72
2024/04/21 08:16:46;;;;;;;2.20;1.60;;;;;;;9.80;51.56;92401.38;2028209;70;20586;-70
2024/04/21 08:19:12;;;;;;;2.03;1.63;;;;;;;10.35;52.56;92399.66;2025062;70;20165;-69
2024/04/21 08:21:37;;;;;;;1.70;1.40;;;;;;;10.82;52.84;92402.28;2028490;70;20145;-69
2024/04/21 08:24:03;;;;;;;2.85;1.23;;;;;;;10.98;52.08;92404.53;2028596;70;20184;-69
2024/04/21 08:26:29;;;;;;;1.33;1.00;;;;;;;10.79;50.16;92402.78;2028586;70;20176;-71
2024/04/21 08:28:54;;;;;;;2.55;1.00;;;;;;;9.73;50.71;92400.31;2028515;70;20171;-69
2024/04/21 08:31:20;;;;;;;1.85;1.40;;;;;;;10.41;51.17;92396.47;2028295;70;20167;-69
2024/04/21 08:33:45;;;;;;;2.53;1.48;;;;;;;10.59;50.52;92391.88;2028518;70;20156;-69
2024/04/21 08:36:11;;;;;;;1.73;1.20;;;;;;;10.96;50.44;92401.59;2028576;70;20220;-72
2024/04/21 08:38:38;;;;;;;1.10;1.00;;;;;;;11.21;48.80;92395.91;2028809;70;20412;-69
2024/04/21 08:41:08;;;;;;;1.27;1.00;;;;;;;11.29;49.34;92396.34;2028752;70;20591;-70
2024/04/21 08:43:36;;;;;;;1.38;0.90;;;;;;;11.17;48.95;92392.88;2028613;70;20283;-70
2024/04/21 08:46:02;;;;;;;0.85;0.75;;;;;;;11.41;49.04;92387.81;2028440;70;20157;-71
2024/04/21 08:48:29;;;;;;;1.63;1.10;;;;;;;10.65;48.27;92397.09;2024955;70;20220;-73
2024/04/21 08:50:55;;;;;;;1.10;0.80;;;;;;;10.66;48.29;92387.31;2028495;70;20160;-70
2024/04/21 08:53:20;;;;;;;2.15;0.80;;;;;;;10.62;47.83;92393.44;2028468;70;20513;-68
2024/04/21 08:55:48;;;;;;;1.85;0.75;;;;;;;11.34;47.78;92395.22;2028504;70;20577;-70
2024/04/21 08:58:16;;;;;;;1.35;0.90;;;;;;;10.85;46.74;92391.84;2024913;70;20148;-70
2024/04/21 09:00:42;;;;;;;1.33;0.90;;;;;;;9.64;48.49;92379.41;2028384;70;20153;-72
2024/04/21 09:03:08;;;;;;;1.63;0.80;;;;;;;9.53;48.36;92388.59;2028530;70;20171;-70
2024/04/21 09:05:35;;;;;;;1.10;0.80;;;;;;;9.53;47.70;92382.97;2028694;70;20586;-70
2024/04/21 09:08:01;;;;;;;1.50;1.30;;;;;;;9.39;48.47;92368.06;2028712;70;20152;-70
2024/04/21 09:10:27;;;;;;;1.92;1.05;;;;;;;9.97;50.28;92381.31;2028752;70;20581;-70
2024/04/21 09:12:53;;;;;;;2.03;1.00;;;;;;;9.31;48.92;92367.59;2028619;70;20243;-71
2024/04/21 09:15:19;;;;;;;1.40;1.05;;;;;;;10.27;49.32;92379.53;2028580;70;20184;-70
2024/04/21 09:17:45;;;;;;;1.77;1.35;;;;;;;10.52;48.89;92359.09;2028715;70;20269;-70
2024/04/21 09:20:11;;;;;;;4.85;3.25;;;;;;;10.68;48.00;92376.91;2028362;70;20283;-69
2024/04/21 09:22:37;;;;;;;2.53;2.00;;;;;;;10.65;48.35;92377.41;2028655;70;20184;-69
2024/04/21 09:25:04;;;;;;;5.28;2.10;;;;;;;10.29;48.00;92376.09;2025253;70;20236;-69
2024/04/21 09:27:33;;;;;;;1.48;1.10;;;;;;;10.66;47.03;92371.16;2028786;70;20149;-69
2024/04/21 09:30:01;;;;;;;2.13;1.38;;;;;;;10.96;47.29;92381.88;2028563;70;20267;-70
2024/04/21 09:32:30;;;;;;;1.55;1.30;;;;;;;11.28;47.32;92366.00;2028490;70;20182;-71
2024/04/21 09:34:56;;;;;;;2.38;1.00;;;;;;;11.40;46.74;92369.44;2021806;71;20491;-72
2024/04/21 09:37:24;;;;;;;1.40;1.00;;;;;;;10.60;47.24;92368.00;2024261;71;20229;-69
2024/04/21 09:39:50;;;;;;;1.50;1.20;;;;;;;10.81;46.57;92375.50;2025024;70;20164;-72
2024/04/21 09:42:18;;;;;;;1.17;0.90;;;;;;;10.94;46.34;92362.78;2024515;71;20160;-68
2024/04/21 09:44:47;;;;;;;2.38;1.23;;;;;;;11.44;47.25;92370.38;2025060;71;20228;-70
2024/04/21 09:47:15;;;;;;;1.55;1.17;;;;;;;11.17;47.19;92359.06;2025086;70;20639;-71
2024/04/21 09:49:42;;;;;;;1.73;1.35;;;;;;;11.15;47.60;92367.41;2025043;70;20609;-70
2024/04/21 09:52:08;;;;;;;2.40;1.17;;;;;;;11.44;47.17;92352.72;2025027;71;20228;-70
2024/04/21 09:54:34;;;;;;;1.67;1.35;;;;;;;11.58;48.13;92361.91;2024932;70;20157;-70
2024/04/21 09:57:17;;;;;;;1.23;1.08;;;;;;;11.64;46.08;92365.06;2024716;70;20486;-69
2024/04/21 09:59:44;;;;;;;1.10;0.98;;;;;;;11.08;46.51;92360.72;2024655;70;20179;-71
2024/04/21 10:02:19;;;;;;;1.70;1.30;;;;;;;11.44;46.76;92356.28;2024951;70;20149;-70
2024/04/21 10:05:04;;;;;;;2.17;1.70;;;;;;;11.49;47.06;92362.13;2024865;70;20214;-70
2024/04/21 10:07:34;;;;;;;1.77;1.10;;;;;;;11.26;46.99;92338.41;2024343;71;20152;-70
2024/04/21 10:10:07;;;;;;;1.52;1.15;;;;;;;11.73;46.18;92348.53;2024710;70;20635;-70
2024/04/21 10:12:33;;;;;;;2.15;1.65;;;;;;;11.45;42.95;92352.13;2024889;70;20248;-71
2024/04/21 10:14:59;;;;;;;2.08;0.90;;;;;;;9.51;45.79;92348.41;2024791;71;20179;-72
2024/04/21 10:17:25;;;;;;;0.47;0.43;;;;;;;10.06;44.22;92335.41;2025072;70;20153;-72
2024/04/21 10:20:07;;;;;;;0.68;0.45;;;;;;;10.63;45.44;92346.34;2024848;70;20229;-73
2024/04/21 10:22:33;;;;;;;1.70;0.85;;;;;;;9.75;45.54;92346.28;2024794;70;20129;-73
2024/04/21 10:24:59;;;;;;;0.60;0.57;;;;;;;11.26;43.89;92335.59;2025017;70;20157;-74
2024/04/21 10:27:24;;;;;;;1.40;0.75;;;;;;;11.02;44.98;92334.31;2024928;70;20160;-71
2024/04/21 10:29:50;;;;;;;1.90;1.45;;;;;;;12.33;44.29;92342.41;2024767;70;20169;-71
2024/04/21 10:32:24;;;;;;;0.88;0.80;;;;;;;12.70;43.12;92336.41;2024901;70;20157;-70
2024/04/21 10:34:50;;;;;;;0.60;0.60;;;;;;;13.56;40.47;92336.75;2027829;70;20180;-70
2024/04/21 10:37:25;;;;;;;0.57;0.57;;;;;;;13.52;41.52;92336.59;2028503;70;20639;-72
2024/04/21 10:40:11;;;;;;;0.88;0.65;;;;;;;15.92;40.46;92328.38;2028393;70;20156;-71
2024/04/21 10:42:38;;;;;;;2.13;0.55;;;;;;;16.69;37.60;92327.41;2025005;70;20153;-72
2024/04/21 10:45:03;;;;;;;0.77;0.50;;;;;;;17.12;36.38;92320.25;2028164;70;20167;-72
2024/04/21 10:47:29;;;;;;;1.00;0.90;;;;;;;15.11;36.80;92320.44;2028330;70;20176;-71
2024/04/21 10:49:56;;;;;;;0.40;0.40;;;;;;;16.72;36.75;92324.00;2028280;70;20149;-70
2024/04/21 10:52:21;;;;;;;1.58;1.10;;;;;;;18.34;34.57;92318.03;2028129;70;20154;-71
2024/04/21 10:54:47;;;;;;;0.47;0.40;;;;;;;16.15;33.01;92310.00;2028534;70;20571;-72
2024/04/21 10:57:14;;;;;;;0.55;0.40;;;;;;;16.18;35.49;92300.91;2028394;70;20229;-70
2024/04/21 10:59:39;;;;;;;0.65;0.60;;;;;;;14.87;35.37;92306.78;2028442;70;20260;-73
2024/04/21 11:02:05;;;;;;;0.50;0.40;;;;;;;14.03;35.10;92297.06;2028233;70;20136;-70
2024/04/21 11:04:34;;;;;;;0.60;0.60;;;;;;;15.90;34.35;92299.94;2028396;70;20250;-71
2024/04/21 11:07:00;;;;;;;0.40;0.40;;;;;;;16.35;33.53;92295.75;2028198;70;20229;-70
2024/04/21 11:09:26;;;;;;;1.58;0.50;;;;;;;19.00;31.26;92284.03;2024945;70;20164;-71
2024/04/21 11:11:52;;;;;;;0.65;0.30;;;;;;;21.24;30.19;92290.41;2028412;70;20180;-71
2024/04/21 11:14:18;;;;;;;1.42;0.40;;;;;;;21.50;29.38;92297.97;2028347;70;20167;-71
2024/04/21 11:16:53;;;;;;;0.30;0.30;;;;;;;20.09;30.29;92275.59;2028270;70;20196;-69
2024/04/21 11:19:21;;;;;;;0.60;0.40;;;;;;;18.21;30.82;92282.06;2028435;70;20291;-71
2024/04/21 11:21:47;;;;;;;0.40;0.32;;;;;;;15.60;32.36;92274.75;2028443;70;20160;-70
2024/04/21 11:24:13;;;;;;;0.45;0.40;;;;;;;13.57;34.94;92276.75;2028303;70;20157;-72
2024/04/21 11:26:41;;;;;;;1.70;1.05;;;;;;;12.66;37.61;92284.66;2028170;70;20172;-70
2024/04/21 11:29:06;;;;;;;0.75;0.60;;;;;;;12.76;40.03;92279.47;2028393;70;20148;-69
2024/04/21 11:31:32;;;;;;;2.53;1.55;;;;;;;10.61;41.37;92276.56;2028233;70;20145;-69
2024/04/21 11:34:02;;;;;;;2.70;1.42;;;;;;;12.18;39.98;92286.63;2028401;70;20160;-70